createdAt,value
2022-09-19T00:02:27.073Z,100330.31
2022-09-19T00:05:32.367Z,100326.19
2022-09-19T00:08:35.289Z,100324.00
2022-09-19T00:11:41.873Z,100324.00
2022-09-19T00:14:45.810Z,100331.34
2022-09-19T00:17:50.920Z,100323.84
2022-09-19T00:20:53.485Z,100327.13
2022-09-19T00:24:13.883Z,100331.22
2022-09-19T00:27:19.500Z,100335.38
2022-09-19T00:30:23.424Z,100335.03
2022-09-19T00:33:29.800Z,100342.28
2022-09-19T00:36:33.489Z,100348.31
2022-09-19T00:39:36.345Z,100342.56
2022-09-19T00:42:39.435Z,100348.59
2022-09-19T00:45:46.279Z,100351.09
2022-09-19T00:48:53.383Z,100348.38
2022-09-19T00:52:00.728Z,100349.47
2022-09-19T00:55:04.257Z,100350.00
2022-09-19T00:58:12.847Z,100351.41
2022-09-19T01:01:17.983Z,100352.16
2022-09-19T01:04:22.946Z,100361.00
2022-09-19T01:07:38.666Z,100357.97
2022-09-19T01:10:53.368Z,100368.69
2022-09-19T01:14:03.209Z,100366.47
2022-09-19T01:17:13.921Z,100368.75
2022-09-19T01:20:49.943Z,100362.84
2022-09-19T01:24:10.124Z,100362.53
2022-09-19T01:27:29.275Z,100372.84
2022-09-19T01:30:35.004Z,100373.69
2022-09-19T01:33:42.022Z,100376.63
2022-09-19T01:36:48.545Z,100375.44
2022-09-19T01:39:53.088Z,100386.44
2022-09-19T01:42:58.828Z,100385.94
2022-09-19T01:46:11.221Z,100386.59
2022-09-19T01:49:27.044Z,100390.22
2022-09-19T01:52:51.106Z,100390.53
2022-09-19T01:55:59.962Z,100397.75
2022-09-19T01:59:13.177Z,100406.28
2022-09-19T02:02:30.173Z,100411.19
2022-09-19T02:05:39.478Z,100405.41
2022-09-19T02:08:47.947Z,100407.44
2022-09-19T02:11:53.341Z,100412.25
2022-09-19T02:14:58.365Z,100415.09
2022-09-19T02:18:08.119Z,100420.28
2022-09-19T02:21:15.284Z,100413.66
2022-09-19T02:24:24.945Z,100422.22
2022-09-19T02:27:33.864Z,100434.00
2022-09-19T02:30:37.466Z,100430.69
2022-09-19T02:33:45.156Z,100424.09
2022-09-19T02:36:56.014Z,100428.56
2022-09-19T02:40:02.966Z,100424.25
2022-09-19T02:43:16.104Z,100434.88
2022-09-19T02:46:27.416Z,100436.38
2022-09-19T02:49:40.286Z,100442.28
2022-09-19T02:52:45.418Z,100434.88
2022-09-19T02:55:52.228Z,100442.34
2022-09-19T02:59:00.185Z,100444.09
2022-09-19T03:02:06.435Z,100447.09
2022-09-19T03:05:15.628Z,100447.06
2022-09-19T03:08:19.240Z,100452.16
2022-09-19T03:11:23.405Z,100446.44
2022-09-19T03:14:27.028Z,100452.31
2022-09-19T03:17:33.651Z,100453.94
2022-09-19T03:20:40.994Z,100455.34
2022-09-19T03:23:46.084Z,100454.84
2022-09-19T03:26:50.896Z,100461.66
2022-09-19T03:29:53.478Z,100461.72
2022-09-19T03:32:56.244Z,100470.03
2022-09-19T03:36:07.226Z,100467.59
2022-09-19T03:39:10.925Z,100477.81
2022-09-19T03:42:13.513Z,100475.47
2022-09-19T03:45:16.386Z,100477.75
2022-09-19T03:48:20.170Z,100484.13
2022-09-19T03:51:25.777Z,100487.72
2022-09-19T03:54:29.035Z,100490.16
2022-09-19T03:57:31.959Z,100491.06
2022-09-19T04:00:34.562Z,100490.06
2022-09-19T04:03:38.907Z,100495.56
2022-09-19T04:06:43.001Z,100489.84
2022-09-19T04:09:48.399Z,100494.47
2022-09-19T04:12:51.489Z,100504.47
2022-09-19T04:15:55.648Z,100505.72
2022-09-19T04:18:58.387Z,100500.72
2022-09-19T04:22:02.624Z,100510.78
2022-09-19T04:25:06.118Z,100514.97
2022-09-19T04:28:12.761Z,100514.50
2022-09-19T04:31:15.865Z,100523.91
2022-09-19T04:34:18.606Z,100524.72
2022-09-19T04:37:23.627Z,100523.03
2022-09-19T04:40:26.338Z,100527.13
2022-09-19T04:43:29.596Z,100530.22
2022-09-19T04:46:33.487Z,100533.50
2022-09-19T04:49:43.450Z,100530.91
2022-09-19T04:52:47.406Z,100534.94
2022-09-19T04:55:50.956Z,100537.91
2022-09-19T04:58:53.521Z,100545.63
2022-09-19T05:01:56.272Z,100550.81
2022-09-19T05:05:00.188Z,100549.97
2022-09-19T05:08:06.302Z,100551.66
2022-09-19T05:11:09.868Z,100556.19
2022-09-19T05:14:15.740Z,100552.38
2022-09-19T05:17:18.311Z,100563.72
2022-09-19T05:20:21.617Z,100559.34
2022-09-19T05:23:26.894Z,100572.22
2022-09-19T05:26:30.061Z,100563.47
2022-09-19T05:29:42.761Z,100567.03
2022-09-19T05:32:46.046Z,100576.66
2022-09-19T05:35:49.324Z,100575.06
2022-09-19T05:38:53.768Z,100581.69
2022-09-19T05:42:00.003Z,100583.41
2022-09-19T05:45:03.624Z,100587.22
2022-09-19T05:48:08.704Z,100591.91
2022-09-19T05:51:11.289Z,100592.16
2022-09-19T05:54:14.417Z,100603.16
2022-09-19T05:57:19.004Z,100602.16
2022-09-19T06:00:22.546Z,100607.00
2022-09-19T06:03:25.257Z,100604.25
2022-09-19T06:06:28.491Z,100605.09
2022-09-19T06:09:32.539Z,100609.75
2022-09-19T06:12:35.251Z,100606.75
2022-09-19T06:15:37.913Z,100614.25
2022-09-19T06:18:43.105Z,100624.75
2022-09-19T06:21:50.327Z,100626.13
2022-09-19T06:24:54.462Z,100636.00
2022-09-19T06:27:57.434Z,100633.81
2022-09-19T06:31:06.679Z,100630.88
2022-09-19T06:34:09.314Z,100634.44
2022-09-19T06:37:12.586Z,100645.22
2022-09-19T06:40:19.270Z,100643.66
2022-09-19T06:43:22.919Z,100648.91
2022-09-19T06:46:25.622Z,100652.50
2022-09-19T06:49:28.710Z,100654.78
2022-09-19T06:52:31.321Z,100656.47
2022-09-19T06:55:35.770Z,100666.09
2022-09-19T06:58:38.597Z,100663.69
2022-09-19T07:01:41.360Z,100678.00
2022-09-19T07:04:43.979Z,100678.00
2022-09-19T07:07:46.996Z,100674.16
2022-09-19T07:10:51.305Z,100689.53
2022-09-19T07:13:54.192Z,100684.06
2022-09-19T07:16:58.823Z,100692.06
2022-09-19T07:20:02.196Z,100700.91
2022-09-19T07:23:10.688Z,100706.69
2022-09-19T07:26:16.271Z,100700.09
2022-09-19T07:29:18.875Z,100703.94
2022-09-19T07:32:21.675Z,100718.84
2022-09-19T07:35:24.345Z,100720.00
2022-09-19T07:38:29.751Z,100722.75
2022-09-19T07:41:33.678Z,100714.47
2022-09-19T07:44:36.254Z,100725.84
2022-09-19T07:47:44.023Z,100722.00
2022-09-19T07:50:53.496Z,100729.47
2022-09-19T07:53:58.860Z,100739.13
2022-09-19T07:57:03.269Z,100735.56
2022-09-19T08:00:08.623Z,100746.84
2022-09-19T08:03:12.764Z,100744.09
2022-09-19T08:06:15.389Z,100760.63
2022-09-19T08:09:18.117Z,100751.75
2022-09-19T08:12:23.258Z,100759.19
2022-09-19T08:15:26.093Z,100759.47
2022-09-19T08:18:28.900Z,100763.75
2022-09-19T08:21:33.261Z,100769.84
2022-09-19T08:24:36.310Z,100776.97
2022-09-19T08:27:40.363Z,100775.00
2022-09-19T08:30:44.496Z,100787.66
2022-09-19T08:33:49.723Z,100783.44
2022-09-19T08:36:52.298Z,100789.97
2022-09-19T08:40:12.687Z,100788.47
2022-09-19T08:43:23.377Z,100796.91
2022-09-19T08:46:38.084Z,100797.28
2022-09-19T08:49:46.172Z,100803.91
2022-09-19T08:52:50.945Z,100803.34
2022-09-19T08:55:58.003Z,100801.31
2022-09-19T08:59:06.580Z,100788.19
2022-09-19T09:02:42.467Z,100799.22
2022-09-19T09:05:57.327Z,100800.34
2022-09-19T09:09:12.233Z,100805.50
2022-09-19T09:12:27.877Z,100801.53
2022-09-19T09:15:50.319Z,100796.84
2022-09-19T09:19:08.462Z,100798.84
2022-09-19T09:22:22.179Z,100810.38
2022-09-19T09:25:31.670Z,100809.03
2022-09-19T09:28:43.731Z,100808.56
2022-09-19T09:31:53.249Z,100802.72
2022-09-19T09:35:01.110Z,100811.78
2022-09-19T09:38:17.258Z,100812.34
2022-09-19T09:41:41.429Z,100810.00
2022-09-19T09:44:56.367Z,100811.84
2022-09-19T09:48:10.294Z,100803.03
2022-09-19T09:51:24.615Z,100826.00
2022-09-19T09:55:04.059Z,100837.38
2022-09-19T09:58:15.188Z,100838.03
2022-09-19T10:02:00.659Z,100843.50
2022-09-19T10:05:12.770Z,100834.44
2022-09-19T10:08:21.242Z,100830.38
2022-09-19T10:15:07.514Z,100868.84
2022-09-19T10:18:15.075Z,100861.22
2022-09-19T10:21:19.439Z,100859.84
2022-09-19T10:24:43.821Z,100867.28
2022-09-19T10:27:50.675Z,100851.59
2022-09-19T10:30:58.314Z,100854.59
2022-09-19T10:34:05.642Z,100853.25
2022-09-19T10:37:14.016Z,100856.84
2022-09-19T10:40:18.275Z,100854.09
2022-09-19T10:43:24.140Z,100861.25
2022-09-19T10:46:32.635Z,100858.25
2022-09-19T10:49:46.374Z,100865.13
2022-09-19T10:52:53.407Z,100858.31
2022-09-19T10:55:57.062Z,100849.81
2022-09-19T10:59:04.489Z,100853.91
2022-09-19T11:02:28.554Z,100851.13
2022-09-19T11:05:33.324Z,100849.78
2022-09-19T11:08:47.026Z,100858.28
2022-09-19T11:11:51.129Z,100850.31
2022-09-19T11:14:56.294Z,100855.31
2022-09-19T11:18:07.080Z,100853.38
2022-09-19T11:21:18.073Z,100840.56
2022-09-19T11:24:42.490Z,100838.72
2022-09-19T11:28:07.096Z,100843.44
2022-09-19T11:34:56.859Z,100830.41
2022-09-19T11:42:03.838Z,100823.06
2022-09-19T11:45:13.839Z,100820.81
2022-09-19T11:48:33.584Z,100831.47
2022-09-19T11:51:51.374Z,100860.66
2022-09-19T11:55:10.964Z,100863.56
2022-09-19T11:58:26.024Z,100876.84
2022-09-19T12:01:38.732Z,100904.75
2022-09-19T12:04:46.384Z,100906.41
2022-09-19T12:08:01.671Z,100907.56
2022-09-19T12:11:11.249Z,100909.78
2022-09-19T12:14:23.943Z,100909.84
2022-09-19T12:17:30.696Z,100898.25
2022-09-19T12:20:39.014Z,100895.72
2022-09-19T12:24:03.748Z,100876.94
2022-09-19T12:27:13.434Z,100886.88
2022-09-19T12:30:20.076Z,100906.09
2022-09-19T12:33:33.104Z,100911.28
2022-09-19T12:36:44.159Z,100919.44
2022-09-19T12:39:54.873Z,100923.81
2022-09-19T12:43:08.949Z,100926.09
2022-09-19T12:46:35.000Z,100913.16
2022-09-19T12:49:45.828Z,100930.56
2022-09-19T12:52:59.658Z,100924.50
2022-09-19T12:56:06.626Z,100928.34
2022-09-19T12:59:21.023Z,100914.59
2022-09-19T13:02:30.219Z,100901.09
2022-09-19T13:05:38.384Z,100897.78
2022-09-19T13:08:48.474Z,100891.16
2022-09-19T13:11:59.828Z,100889.25
2022-09-19T13:15:11.919Z,100890.34
2022-09-19T13:18:35.008Z,100902.69
2022-09-19T13:22:09.659Z,100905.88
2022-09-19T13:25:15.852Z,100904.56
2022-09-19T13:28:29.578Z,100905.66
2022-09-19T13:31:57.959Z,100903.25
2022-09-19T13:35:19.534Z,100911.78
2022-09-19T13:38:27.928Z,100913.66
2022-09-19T13:41:35.913Z,100907.59
2022-09-19T13:44:47.085Z,100902.41
2022-09-19T13:47:55.893Z,100909.50
2022-09-19T13:51:07.006Z,100908.91
2022-09-19T13:54:33.618Z,100912.75
2022-09-19T13:57:40.277Z,100926.38
2022-09-19T14:00:48.150Z,100938.81
2022-09-19T14:03:57.240Z,100922.13
2022-09-19T14:10:30.017Z,100919.22
2022-09-19T14:13:45.687Z,100932.75
2022-09-19T14:17:30.055Z,100946.00
2022-09-19T14:20:51.889Z,100951.81
2022-09-19T14:24:04.209Z,100948.78
2022-09-19T14:27:18.803Z,100945.47
2022-09-19T14:30:48.260Z,100953.97
2022-09-19T14:34:27.593Z,100951.50
2022-09-19T14:37:58.541Z,100963.22
2022-09-19T14:41:07.250Z,100959.97
2022-09-19T14:44:37.227Z,100966.59
2022-09-19T14:47:44.340Z,100959.19
2022-09-19T14:50:51.952Z,100955.91
2022-09-19T14:54:04.002Z,100965.84
2022-09-19T14:57:16.638Z,100971.34
2022-09-19T15:00:24.459Z,100976.88
2022-09-19T15:03:27.457Z,100981.28
2022-09-19T15:06:33.719Z,100983.50
2022-09-19T15:09:38.181Z,100978.81
2022-09-19T15:12:43.249Z,100981.28
2022-09-19T15:15:49.792Z,100981.31
2022-09-19T15:18:54.421Z,100974.69
2022-09-19T15:21:59.125Z,100974.75
2022-09-19T15:25:08.231Z,100969.19
2022-09-19T15:28:27.961Z,100965.66
2022-09-19T15:31:33.607Z,100965.88
2022-09-19T15:34:37.379Z,100964.78
2022-09-19T15:37:44.854Z,100966.16
2022-09-19T15:40:48.042Z,100969.78
2022-09-19T15:43:53.326Z,100974.09
2022-09-19T15:47:03.993Z,100978.53
2022-09-19T15:50:23.674Z,100978.25
2022-09-19T15:53:34.389Z,100985.44
2022-09-19T15:56:45.787Z,100984.06
2022-09-19T15:59:51.711Z,100983.78
2022-09-19T16:02:57.091Z,100982.13
2022-09-19T16:06:29.729Z,100987.03
2022-09-19T16:09:34.526Z,100992.31
2022-09-19T16:12:44.107Z,100996.38
2022-09-19T16:15:48.195Z,101011.47
2022-09-19T16:18:51.526Z,101008.47
2022-09-19T16:21:56.128Z,100995.00
2022-09-19T16:25:03.976Z,101004.88
2022-09-19T16:28:12.946Z,100997.41
2022-09-19T16:31:28.221Z,100996.25
2022-09-19T16:34:35.993Z,101009.19
2022-09-19T16:37:41.230Z,101010.09
2022-09-19T16:40:56.663Z,101009.81
2022-09-19T16:44:01.349Z,101017.22
2022-09-19T16:47:16.810Z,101019.41
2022-09-19T16:50:25.154Z,101014.91
2022-09-19T16:53:29.926Z,101024.97
2022-09-19T16:56:32.640Z,101025.75
2022-09-19T16:59:36.615Z,101024.59
2022-09-19T17:02:40.587Z,101026.56
2022-09-19T17:05:43.865Z,101025.25
2022-09-19T17:08:46.863Z,101033.16
2022-09-19T17:11:49.507Z,101034.78
2022-09-19T17:14:52.317Z,101047.06
2022-09-19T17:17:56.307Z,101053.66
2022-09-19T17:21:00.603Z,101053.63
2022-09-19T17:24:03.716Z,101057.22
2022-09-19T17:27:07.211Z,101055.31
2022-09-19T17:30:11.291Z,101053.59
2022-09-19T17:33:16.658Z,101055.09
2022-09-19T17:36:19.603Z,101057.19
2022-09-19T17:39:22.367Z,101062.69
2022-09-19T17:42:25.172Z,101069.47
2022-09-19T17:45:27.961Z,101068.84
2022-09-19T17:48:36.687Z,101071.91
2022-09-19T17:51:39.872Z,101077.69
2022-09-19T17:54:42.651Z,101069.72
2022-09-19T17:57:45.333Z,101082.63
2022-09-19T18:00:48.547Z,101072.41
2022-09-19T18:03:51.697Z,101083.47
2022-09-19T18:06:54.347Z,101085.13
2022-09-19T18:09:56.910Z,101087.94
2022-09-19T18:13:04.411Z,101089.91
2022-09-19T18:16:07.680Z,101086.59
2022-09-19T18:19:11.719Z,101096.44
2022-09-19T18:22:14.301Z,101092.53
2022-09-19T18:25:18.311Z,101094.19
2022-09-19T18:28:22.866Z,101093.44
2022-09-19T18:31:26.069Z,101094.38
2022-09-19T18:34:30.217Z,101105.38
2022-09-19T18:37:32.844Z,101091.78
2022-09-19T18:40:35.487Z,101085.44
2022-09-19T18:43:38.964Z,101083.47
2022-09-19T18:46:41.582Z,101097.38
2022-09-19T18:49:45.532Z,101107.44
2022-09-19T18:52:48.538Z,101102.19
2022-09-19T18:55:53.735Z,101091.78
2022-09-19T18:58:58.297Z,101085.44
2022-09-19T19:02:01.548Z,101099.97
2022-09-19T19:05:06.894Z,101104.84
2022-09-19T19:08:10.845Z,101112.25
2022-09-19T19:11:17.130Z,101113.69
2022-09-19T19:14:19.870Z,101127.59
2022-09-19T19:17:23.163Z,101120.44
2022-09-19T19:20:27.112Z,101132.59
2022-09-19T19:23:29.795Z,101133.41
2022-09-19T19:26:35.214Z,101126.00
2022-09-19T19:29:37.962Z,101131.75
2022-09-19T19:32:40.566Z,101130.03
2022-09-19T19:35:45.591Z,101130.19
2022-09-19T19:38:50.374Z,101129.63
2022-09-19T19:41:52.948Z,101131.94
2022-09-19T19:44:55.513Z,101134.53
2022-09-19T19:47:58.251Z,101139.50
2022-09-19T19:51:04.318Z,101140.31
2022-09-19T19:54:07.118Z,101140.81
2022-09-19T19:57:13.645Z,101142.72
2022-09-19T20:00:17.220Z,101136.66
2022-09-19T20:03:20.189Z,101147.00
2022-09-19T20:06:26.642Z,101148.22
2022-09-19T20:09:30.652Z,101145.84
2022-09-19T20:12:33.225Z,101141.19
2022-09-19T20:15:36.250Z,101146.09
2022-09-19T20:18:43.686Z,101141.94
2022-09-19T20:21:50.747Z,101146.34
2022-09-19T20:24:53.615Z,101144.63
2022-09-19T20:28:00.762Z,101145.84
2022-09-19T20:31:05.405Z,101146.47
2022-09-19T20:34:10.285Z,101146.31
2022-09-19T20:37:15.230Z,101144.94
2022-09-19T20:40:18.890Z,101148.53
2022-09-19T20:43:21.468Z,101159.75
2022-09-19T20:46:25.371Z,101149.50
2022-09-19T20:49:28.688Z,101152.88
2022-09-19T20:52:32.727Z,101156.66
2022-09-19T20:55:36.978Z,101153.06
2022-09-19T20:58:39.638Z,101158.56
2022-09-19T21:01:47.464Z,101162.34
2022-09-19T21:04:52.907Z,101165.94
2022-09-19T21:07:59.713Z,101162.03
2022-09-19T21:11:04.475Z,101160.56
2022-09-19T21:14:07.053Z,101162.66
2022-09-19T21:17:09.870Z,101166.00
2022-09-19T21:20:13.053Z,101163.69
2022-09-19T21:23:17.138Z,101172.97
2022-09-19T21:26:22.434Z,101170.16
2022-09-19T21:29:25.241Z,101167.72
2022-09-19T21:32:27.986Z,101179.56
2022-09-19T21:35:30.746Z,101177.06
2022-09-19T21:38:34.827Z,101173.16
2022-09-19T21:41:38.719Z,101173.50
2022-09-19T21:44:41.291Z,101180.50
2022-09-19T21:47:43.970Z,101175.19
2022-09-19T21:50:52.449Z,101180.25
2022-09-19T21:53:58.627Z,101178.41
2022-09-19T21:57:01.632Z,101174.19
2022-09-19T22:00:08.285Z,101183.06
2022-09-19T22:03:12.020Z,101187.63
2022-09-19T22:06:15.298Z,101186.38
2022-09-19T22:09:19.276Z,101185.16
2022-09-19T22:12:21.976Z,101181.50
2022-09-19T22:15:24.830Z,101188.34
2022-09-19T22:18:28.852Z,101185.09
2022-09-19T22:21:31.406Z,101189.66
2022-09-19T22:24:35.439Z,101190.44
2022-09-19T22:27:38.250Z,101192.28
2022-09-19T22:30:41.774Z,101194.38
2022-09-19T22:33:46.494Z,101203.03
2022-09-19T22:36:49.182Z,101201.22
2022-09-19T22:39:53.230Z,101201.50
2022-09-19T22:42:56.255Z,101195.44
2022-09-19T22:45:59.639Z,101201.59
2022-09-19T22:49:03.673Z,101202.44
2022-09-19T22:52:06.940Z,101208.50
2022-09-19T22:55:11.596Z,101203.16
2022-09-19T22:58:15.753Z,101201.59
2022-09-19T23:01:21.189Z,101206.34
2022-09-19T23:04:24.186Z,101210.75
2022-09-19T23:07:26.890Z,101211.53
2022-09-19T23:10:33.600Z,101213.22
2022-09-19T23:13:49.703Z,101219.88
2022-09-19T23:16:53.983Z,101226.78
2022-09-19T23:19:57.365Z,101229.94
2022-09-19T23:23:00.224Z,101237.66
2022-09-19T23:26:05.358Z,101230.44
2022-09-19T23:29:09.055Z,101245.59
2022-09-19T23:32:11.813Z,101239.47
2022-09-19T23:35:14.756Z,101237.75
2022-09-19T23:38:18.115Z,101244.06
2022-09-19T23:41:24.073Z,101234.59
2022-09-19T23:44:26.957Z,101242.25
2022-09-19T23:47:29.642Z,101247.69
2022-09-19T23:50:32.524Z,101248.00
2022-09-19T23:53:38.721Z,101246.31
2022-09-19T23:56:42.802Z,101245.34
2022-09-19T23:59:45.638Z,101252.34
